sensor_id;sensor_type;location;lat;lon;timestamp;temperature;humidity
38936;DHT22;25541;47.458;9.644;2022-09-25T04:02:54;12.10;99.90
38936;DHT22;25541;47.458;9.644;2022-09-25T04:05:22;12.00;99.90
38936;DHT22;25541;47.458;9.644;2022-09-25T04:07:48;12.10;99.90
38936;DHT22;25541;47.458;9.644;2022-09-25T04:10:14;12.10;99.90
38936;DHT22;25541;47.458;9.644;2022-09-25T04:12:39;12.10;99.90
38936;DHT22;25541;47.458;9.644;2022-09-25T04:15:07;12.00;99.90
38936;DHT22;25541;47.458;9.644;2022-09-25T04:17:34;12.00;99.90
38936;DHT22;25541;47.458;9.644;2022-09-25T04:20:00;12.00;99.90
38936;DHT22;25541;47.458;9.644;2022-09-25T04:22:26;12.10;99.90
38936;DHT22;25541;47.458;9.644;2022-09-25T04:24:52;12.20;99.90
38936;DHT22;25541;47.458;9.644;2022-09-25T04:27:21;12.40;99.90
38936;DHT22;25541;47.458;9.644;2022-09-25T04:29:48;12.50;99.90
38936;DHT22;25541;47.458;9.644;2022-09-25T04:32:15;12.50;99.90
38936;DHT22;25541;47.458;9.644;2022-09-25T04:35:00;12.50;99.90
38936;DHT22;25541;47.458;9.644;2022-09-25T04:37:25;12.60;99.90
38936;DHT22;25541;47.458;9.644;2022-09-25T04:39:55;12.60;99.90
38936;DHT22;25541;47.458;9.644;2022-09-25T04:42:21;12.60;99.90
38936;DHT22;25541;47.458;9.644;2022-09-25T04:44:53;12.60;99.90
38936;DHT22;25541;47.458;9.644;2022-09-25T04:47:20;12.40;99.90
38936;DHT22;25541;47.458;9.644;2022-09-25T04:49:47;12.30;99.90
38936;DHT22;25541;47.458;9.644;2022-09-25T04:52:17;12.30;99.90
38936;DHT22;25541;47.458;9.644;2022-09-25T04:54:43;12.40;99.90
38936;DHT22;25541;47.458;9.644;2022-09-25T04:57:14;12.50;99.90
38936;DHT22;25541;47.458;9.644;2022-09-25T04:59:40;12.50;99.90
38936;DHT22;25541;47.458;9.644;2022-09-25T05:02:05;12.50;99.90
38936;DHT22;25541;47.458;9.644;2022-09-25T05:04:31;12.50;99.90
38936;DHT22;25541;47.458;9.644;2022-09-25T05:06:57;12.40;99.90
38936;DHT22;25541;47.458;9.644;2022-09-25T05:09:23;12.50;99.90
38936;DHT22;25541;47.458;9.644;2022-09-25T05:11:48;12.50;99.90
38936;DHT22;25541;47.458;9.644;2022-09-25T05:14:14;12.50;99.90
38936;DHT22;25541;47.458;9.644;2022-09-25T05:16:40;12.40;99.90
38936;DHT22;25541;47.458;9.644;2022-09-25T05:19:05;12.40;99.90
38936;DHT22;25541;47.458;9.644;2022-09-25T05:21:31;12.20;99.90
38936;DHT22;25541;47.458;9.644;2022-09-25T05:23:57;12.10;99.90
38936;DHT22;25541;47.458;9.644;2022-09-25T05:26:23;12.00;99.90
38936;DHT22;25541;47.458;9.644;2022-09-25T05:28:49;12.00;99.90
38936;DHT22;25541;47.458;9.644;2022-09-25T05:31:16;12.10;99.90
38936;DHT22;25541;47.458;9.644;2022-09-25T05:33:41;12.20;99.90
38936;DHT22;25541;47.458;9.644;2022-09-25T05:36:10;12.30;99.90
38936;DHT22;25541;47.458;9.644;2022-09-25T05:38:37;12.40;99.90
38936;DHT22;25541;47.458;9.644;2022-09-25T05:41:08;12.50;99.90
38936;DHT22;25541;47.458;9.644;2022-09-25T05:43:38;12.60;99.90
38936;DHT22;25541;47.458;9.644;2022-09-25T05:46:05;12.60;99.90
38936;DHT22;25541;47.458;9.644;2022-09-25T05:48:31;12.60;99.90
38936;DHT22;25541;47.458;9.644;2022-09-25T05:50:57;12.70;99.90
38936;DHT22;25541;47.458;9.644;2022-09-25T05:53:24;12.70;99.90
38936;DHT22;25541;47.458;9.644;2022-09-25T05:55:55;12.70;99.90
38936;DHT22;25541;47.458;9.644;2022-09-25T05:58:22;12.80;99.90
38936;DHT22;25541;47.458;9.644;2022-09-25T06:00:48;13.00;99.90
38936;DHT22;25541;47.458;9.644;2022-09-25T06:03:15;13.10;99.90
38936;DHT22;25541;47.458;9.644;2022-09-25T06:05:41;13.20;99.90
38936;DHT22;25541;47.458;9.644;2022-09-25T06:08:07;13.30;99.90
38936;DHT22;25541;47.458;9.644;2022-09-25T06:10:33;13.50;99.90
38936;DHT22;25541;47.458;9.644;2022-09-25T06:13:01;13.80;99.90
38936;DHT22;25541;47.458;9.644;2022-09-25T06:15:28;14.00;99.90
38936;DHT22;25541;47.458;9.644;2022-09-25T06:17:56;14.30;99.90
38936;DHT22;25541;47.458;9.644;2022-09-25T06:20:22;14.20;99.90
38936;DHT22;25541;47.458;9.644;2022-09-25T06:22:53;14.10;99.90
38936;DHT22;25541;47.458;9.644;2022-09-25T06:25:19;14.10;99.90
38936;DHT22;25541;47.458;9.644;2022-09-25T06:27:45;14.30;99.90
38936;DHT22;25541;47.458;9.644;2022-09-25T06:30:10;14.30;99.90
38936;DHT22;25541;47.458;9.644;2022-09-25T06:32:36;14.00;99.90
38936;DHT22;25541;47.458;9.644;2022-09-25T06:35:03;13.80;99.90
38936;DHT22;25541;47.458;9.644;2022-09-25T06:37:29;13.60;99.90
38936;DHT22;25541;47.458;9.644;2022-09-25T06:39:54;13.30;99.90
38936;DHT22;25541;47.458;9.644;2022-09-25T06:42:20;13.60;99.90
38936;DHT22;25541;47.458;9.644;2022-09-25T06:44:46;13.70;99.90
38936;DHT22;25541;47.458;9.644;2022-09-25T06:47:11;13.80;99.90
38936;DHT22;25541;47.458;9.644;2022-09-25T06:49:37;14.00;99.90
38936;DHT22;25541;47.458;9.644;2022-09-25T06:52:03;14.20;99.90
38936;DHT22;25541;47.458;9.644;2022-09-25T06:54:30;14.40;99.90
38936;DHT22;25541;47.458;9.644;2022-09-25T06:56:56;14.60;99.90
38936;DHT22;25541;47.458;9.644;2022-09-25T06:59:21;15.00;99.90
38936;DHT22;25541;47.458;9.644;2022-09-25T07:01:47;15.40;99.90
38936;DHT22;25541;47.458;9.644;2022-09-25T07:04:13;15.40;99.90
38936;DHT22;25541;47.458;9.644;2022-09-25T07:06:39;16.00;99.90
38936;DHT22;25541;47.458;9.644;2022-09-25T07:09:05;16.40;99.90
38936;DHT22;25541;47.458;9.644;2022-09-25T07:11:30;16.80;99.90
38936;DHT22;25541;47.458;9.644;2022-09-25T07:13:56;17.40;97.40
38936;DHT22;25541;47.458;9.644;2022-09-25T07:16:25;17.90;97.00
38936;DHT22;25541;47.458;9.644;2022-09-25T07:18:55;18.50;93.40
38936;DHT22;25541;47.458;9.644;2022-09-25T07:21:25;18.60;91.50
38936;DHT22;25541;47.458;9.644;2022-09-25T07:23:54;18.40;91.90
38936;DHT22;25541;47.458;9.644;2022-09-25T07:26:24;18.20;92.10
38936;DHT22;25541;47.458;9.644;2022-09-25T07:28:56;17.90;92.90
38936;DHT22;25541;47.458;9.644;2022-09-25T07:31:24;17.80;92.90
38936;DHT22;25541;47.458;9.644;2022-09-25T07:33:50;17.80;93.00
38936;DHT22;25541;47.458;9.644;2022-09-25T07:36:17;17.60;93.00
38936;DHT22;25541;47.458;9.644;2022-09-25T07:38:43;17.60;93.40
38936;DHT22;25541;47.458;9.644;2022-09-25T07:41:10;17.40;92.90
38936;DHT22;25541;47.458;9.644;2022-09-25T07:43:37;17.40;92.80
38936;DHT22;25541;47.458;9.644;2022-09-25T07:46:04;17.20;94.00
38936;DHT22;25541;47.458;9.644;2022-09-25T07:48:30;17.20;93.90
38936;DHT22;25541;47.458;9.644;2022-09-25T07:51:04;17.30;93.90
38936;DHT22;25541;47.458;9.644;2022-09-25T07:53:30;17.30;93.80
38936;DHT22;25541;47.458;9.644;2022-09-25T07:55:57;17.20;94.20
38936;DHT22;25541;47.458;9.644;2022-09-25T07:58:23;17.20;95.50
38936;DHT22;25541;47.458;9.644;2022-09-25T08:00:50;17.30;96.10
38936;DHT22;25541;47.458;9.644;2022-09-25T08:03:16;17.70;94.60
38936;DHT22;25541;47.458;9.644;2022-09-25T08:05:42;17.90;94.00
38936;DHT22;25541;47.458;9.644;2022-09-25T08:08:07;18.10;94.10
38936;DHT22;25541;47.458;9.644;2022-09-25T08:10:33;17.60;94.00
38936;DHT22;25541;47.458;9.644;2022-09-25T08:12:59;17.10;96.00
38936;DHT22;25541;47.458;9.644;2022-09-25T08:15:25;16.80;97.10
38936;DHT22;25541;47.458;9.644;2022-09-25T08:17:50;16.60;98.00
38936;DHT22;25541;47.458;9.644;2022-09-25T08:20:16;16.40;98.60
38936;DHT22;25541;47.458;9.644;2022-09-25T08:22:42;16.30;99.10
38936;DHT22;25541;47.458;9.644;2022-09-25T08:25:08;16.00;99.90
38936;DHT22;25541;47.458;9.644;2022-09-25T08:27:35;16.00;99.90
38936;DHT22;25541;47.458;9.644;2022-09-25T08:30:09;15.90;99.90
38936;DHT22;25541;47.458;9.644;2022-09-25T08:32:35;16.10;99.90
38936;DHT22;25541;47.458;9.644;2022-09-25T08:35:02;16.50;99.90
38936;DHT22;25541;47.458;9.644;2022-09-25T08:37:28;16.60;99.90
38936;DHT22;25541;47.458;9.644;2022-09-25T08:39:57;17.00;99.80
38936;DHT22;25541;47.458;9.644;2022-09-25T08:42:33;17.10;97.80
38936;DHT22;25541;47.458;9.644;2022-09-25T08:45:04;16.80;99.50
38936;DHT22;25541;47.458;9.644;2022-09-25T08:47:52;17.10;98.70
38936;DHT22;25541;47.458;9.644;2022-09-25T08:50:37;16.80;98.50
38936;DHT22;25541;47.458;9.644;2022-09-25T08:53:20;16.60;98.70
38936;DHT22;25541;47.458;9.644;2022-09-25T08:55:48;16.20;99.60
38936;DHT22;25541;47.458;9.644;2022-09-25T08:58:37;16.10;99.90
38936;DHT22;25541;47.458;9.644;2022-09-25T09:01:14;15.80;99.90
38936;DHT22;25541;47.458;9.644;2022-09-25T09:04:16;15.70;99.90
38936;DHT22;25541;47.458;9.644;2022-09-25T09:06:45;15.90;99.90
38936;DHT22;25541;47.458;9.644;2022-09-25T09:09:33;15.90;99.90
38936;DHT22;25541;47.458;9.644;2022-09-25T09:12:13;16.10;99.90
38936;DHT22;25541;47.458;9.644;2022-09-25T09:15:06;16.30;99.90
38936;DHT22;25541;47.458;9.644;2022-09-25T09:17:40;16.40;99.40
38936;DHT22;25541;47.458;9.644;2022-09-25T09:20:20;16.20;99.90
38936;DHT22;25541;47.458;9.644;2022-09-25T09:22:49;16.10;99.90
38936;DHT22;25541;47.458;9.644;2022-09-25T09:26:00;16.50;99.40
38936;DHT22;25541;47.458;9.644;2022-09-25T09:34:21;16.90;97.60
38936;DHT22;25541;47.458;9.644;2022-09-25T09:39:45;16.40;98.80
38936;DHT22;25541;47.458;9.644;2022-09-25T09:48:12;16.70;98.00
38936;DHT22;25541;47.458;9.644;2022-09-25T09:50:44;16.60;97.40
38936;DHT22;25541;47.458;9.644;2022-09-25T09:56:27;17.30;97.80
38936;DHT22;25541;47.458;9.644;2022-09-25T09:58:55;18.30;96.20
38936;DHT22;25541;47.458;9.644;2022-09-25T10:01:25;19.40;91.70
38936;DHT22;25541;47.458;9.644;2022-09-25T10:04:15;21.80;90.10
38936;DHT22;25541;47.458;9.644;2022-09-25T10:06:54;25.40;75.90
38936;DHT22;25541;47.458;9.644;2022-09-25T10:09:22;26.00;66.50
38936;DHT22;25541;47.458;9.644;2022-09-25T10:12:10;25.80;64.50
38936;DHT22;25541;47.458;9.644;2022-09-25T10:14:40;25.20;62.60
38936;DHT22;25541;47.458;9.644;2022-09-25T10:17:07;24.50;66.20
38936;DHT22;25541;47.458;9.644;2022-09-25T10:22:15;24.50;64.50
38936;DHT22;25541;47.458;9.644;2022-09-25T10:27:25;25.20;65.30
38936;DHT22;25541;47.458;9.644;2022-09-25T10:32:52;24.40;62.90
38936;DHT22;25541;47.458;9.644;2022-09-25T10:35:22;23.00;67.20
38936;DHT22;25541;47.458;9.644;2022-09-25T10:37:53;22.20;72.20
38936;DHT22;25541;47.458;9.644;2022-09-25T10:45:33;21.20;73.10
38936;DHT22;25541;47.458;9.644;2022-09-25T10:47:59;20.50;76.50
38936;DHT22;25541;47.458;9.644;2022-09-25T10:50:44;20.60;77.90
38936;DHT22;25541;47.458;9.644;2022-09-25T10:53:27;21.30;75.20
38936;DHT22;25541;47.458;9.644;2022-09-25T10:56:01;21.50;73.60
38936;DHT22;25541;47.458;9.644;2022-09-25T10:58:33;21.80;71.70
38936;DHT22;25541;47.458;9.644;2022-09-25T11:01:00;21.10;73.50
38936;DHT22;25541;47.458;9.644;2022-09-25T11:03:34;20.60;74.80
38936;DHT22;25541;47.458;9.644;2022-09-25T11:06:16;20.70;75.70
38936;DHT22;25541;47.458;9.644;2022-09-25T11:08:46;20.70;74.70
38936;DHT22;25541;47.458;9.644;2022-09-25T11:11:20;20.60;74.00
38936;DHT22;25541;47.458;9.644;2022-09-25T11:13:50;20.30;75.90
38936;DHT22;25541;47.458;9.644;2022-09-25T11:16:17;20.50;76.20
38936;DHT22;25541;47.458;9.644;2022-09-25T11:18:51;21.10;73.50
38936;DHT22;25541;47.458;9.644;2022-09-25T11:21:39;21.10;72.70
38936;DHT22;25541;47.458;9.644;2022-09-25T11:24:21;20.80;73.10
38936;DHT22;25541;47.458;9.644;2022-09-25T11:26:55;21.30;72.90
38936;DHT22;25541;47.458;9.644;2022-09-25T11:37:39;20.40;75.50
38936;DHT22;25541;47.458;9.644;2022-09-25T11:43:24;20.00;76.30
38936;DHT22;25541;47.458;9.644;2022-09-25T11:45:54;19.60;78.20
38936;DHT22;25541;47.458;9.644;2022-09-25T11:48:50;19.50;78.70
38936;DHT22;25541;47.458;9.644;2022-09-25T11:56:54;19.60;77.40
38936;DHT22;25541;47.458;9.644;2022-09-25T12:10:51;18.20;84.80
38936;DHT22;25541;47.458;9.644;2022-09-25T12:16:24;18.60;83.50
38936;DHT22;25541;47.458;9.644;2022-09-25T12:21:33;17.80;86.00
38936;DHT22;25541;47.458;9.644;2022-09-25T12:26:50;17.40;89.60
38936;DHT22;25541;47.458;9.644;2022-09-25T12:40:54;17.70;90.70
38936;DHT22;25541;47.458;9.644;2022-09-25T12:43:32;18.10;88.70
38936;DHT22;25541;47.458;9.644;2022-09-25T12:46:46;18.00;89.10
38936;DHT22;25541;47.458;9.644;2022-09-25T12:49:19;18.10;88.90
38936;DHT22;25541;47.458;9.644;2022-09-25T12:51:49;17.70;91.10
38936;DHT22;25541;47.458;9.644;2022-09-25T12:59:55;17.40;93.30
38936;DHT22;25541;47.458;9.644;2022-09-25T13:02:39;17.40;92.80
38936;DHT22;25541;47.458;9.644;2022-09-25T13:05:37;17.80;92.60
38936;DHT22;25541;47.458;9.644;2022-09-25T13:08:15;18.30;91.70
38936;DHT22;25541;47.458;9.644;2022-09-25T13:13:20;19.10;87.10
38936;DHT22;25541;47.458;9.644;2022-09-25T13:16:04;18.50;89.10
38936;DHT22;25541;47.458;9.644;2022-09-25T13:18:30;18.20;90.40
38936;DHT22;25541;47.458;9.644;2022-09-25T13:21:25;18.20;90.20
38936;DHT22;25541;47.458;9.644;2022-09-25T13:23:54;18.20;90.20
38936;DHT22;25541;47.458;9.644;2022-09-25T13:26:22;18.40;89.30
38936;DHT22;25541;47.458;9.644;2022-09-25T13:29:02;18.10;90.00
38936;DHT22;25541;47.458;9.644;2022-09-25T13:31:31;18.20;89.80
38936;DHT22;25541;47.458;9.644;2022-09-25T13:36:46;18.40;87.70
38936;DHT22;25541;47.458;9.644;2022-09-25T13:42:07;18.80;87.70
38936;DHT22;25541;47.458;9.644;2022-09-25T13:49:54;18.60;86.50
38936;DHT22;25541;47.458;9.644;2022-09-25T13:55:15;18.10;89.60
38936;DHT22;25541;47.458;9.644;2022-09-25T14:03:44;18.00;89.70
38936;DHT22;25541;47.458;9.644;2022-09-25T14:06:28;18.10;90.10
38936;DHT22;25541;47.458;9.644;2022-09-25T14:09:07;18.20;89.40
38936;DHT22;25541;47.458;9.644;2022-09-25T14:11:35;17.70;90.50
38936;DHT22;25541;47.458;9.644;2022-09-25T14:14:05;17.80;90.70
38936;DHT22;25541;47.458;9.644;2022-09-25T14:16:43;17.90;90.50
38936;DHT22;25541;47.458;9.644;2022-09-25T14:19:23;17.60;90.50
38936;DHT22;25541;47.458;9.644;2022-09-25T14:21:50;17.30;90.90
38936;DHT22;25541;47.458;9.644;2022-09-25T14:24:27;17.20;91.30
38936;DHT22;25541;47.458;9.644;2022-09-25T14:26:55;17.30;90.40
38936;DHT22;25541;47.458;9.644;2022-09-25T14:29:29;17.40;88.20
38936;DHT22;25541;47.458;9.644;2022-09-25T14:40:41;17.00;90.50
38936;DHT22;25541;47.458;9.644;2022-09-25T14:43:46;17.10;90.50
38936;DHT22;25541;47.458;9.644;2022-09-25T14:46:17;17.30;87.90
38936;DHT22;25541;47.458;9.644;2022-09-25T14:48:57;17.20;90.20
38936;DHT22;25541;47.458;9.644;2022-09-25T14:51:37;17.10;90.00
38936;DHT22;25541;47.458;9.644;2022-09-25T14:54:08;17.30;88.90
38936;DHT22;25541;47.458;9.644;2022-09-25T14:56:36;17.40;89.60
38936;DHT22;25541;47.458;9.644;2022-09-25T14:59:09;17.30;88.30
38936;DHT22;25541;47.458;9.644;2022-09-25T15:01:44;17.30;89.10
38936;DHT22;25541;47.458;9.644;2022-09-25T15:04:11;17.20;90.20
38936;DHT22;25541;47.458;9.644;2022-09-25T15:06:38;17.30;88.40
38936;DHT22;25541;47.458;9.644;2022-09-25T15:09:39;17.30;88.90
38936;DHT22;25541;47.458;9.644;2022-09-25T15:12:30;17.10;90.20
38936;DHT22;25541;47.458;9.644;2022-09-25T15:15:03;16.90;90.90
38936;DHT22;25541;47.458;9.644;2022-09-25T15:17:30;16.50;91.70
38936;DHT22;25541;47.458;9.644;2022-09-25T15:19:59;16.20;92.50
38936;DHT22;25541;47.458;9.644;2022-09-25T15:22:31;16.30;93.00
38936;DHT22;25541;47.458;9.644;2022-09-25T15:25:00;16.40;93.50
38936;DHT22;25541;47.458;9.644;2022-09-25T15:27:28;16.40;93.00
38936;DHT22;25541;47.458;9.644;2022-09-25T15:29:55;16.50;92.70
38936;DHT22;25541;47.458;9.644;2022-09-25T15:35:06;16.50;93.80
38936;DHT22;25541;47.458;9.644;2022-09-25T15:37:33;16.60;93.90
38936;DHT22;25541;47.458;9.644;2022-09-25T15:40:23;16.40;95.20
38936;DHT22;25541;47.458;9.644;2022-09-25T15:42:53;15.90;96.40
38936;DHT22;25541;47.458;9.644;2022-09-25T15:48:21;16.00;98.60
38936;DHT22;25541;47.458;9.644;2022-09-25T15:50:48;16.40;96.10
38936;DHT22;25541;47.458;9.644;2022-09-25T15:53:31;16.10;96.80
38936;DHT22;25541;47.458;9.644;2022-09-25T15:56:25;16.20;96.60
38936;DHT22;25541;47.458;9.644;2022-09-25T16:01:23;15.90;98.00
38936;DHT22;25541;47.458;9.644;2022-09-25T16:04:17;15.40;99.90
38936;DHT22;25541;47.458;9.644;2022-09-25T16:07:27;15.50;99.90
38936;DHT22;25541;47.458;9.644;2022-09-25T16:09:56;15.70;99.90
38936;DHT22;25541;47.458;9.644;2022-09-25T16:14:52;15.40;99.90
38936;DHT22;25541;47.458;9.644;2022-09-25T16:17:29;15.20;99.90
38936;DHT22;25541;47.458;9.644;2022-09-25T16:22:30;15.30;99.90
38936;DHT22;25541;47.458;9.644;2022-09-25T16:24:57;15.20;99.90
38936;DHT22;25541;47.458;9.644;2022-09-25T16:27:30;15.20;99.90
38936;DHT22;25541;47.458;9.644;2022-09-25T16:30:00;15.40;99.90
38936;DHT22;25541;47.458;9.644;2022-09-25T16:32:27;15.50;99.90
38936;DHT22;25541;47.458;9.644;2022-09-25T16:34:59;15.50;99.90
38936;DHT22;25541;47.458;9.644;2022-09-25T16:37:30;15.20;99.90
38936;DHT22;25541;47.458;9.644;2022-09-25T16:40:26;15.00;99.90
38936;DHT22;25541;47.458;9.644;2022-09-25T16:42:55;15.00;99.90
38936;DHT22;25541;47.458;9.644;2022-09-25T16:45:32;14.90;99.90
38936;DHT22;25541;47.458;9.644;2022-09-25T16:48:23;14.90;99.90
38936;DHT22;25541;47.458;9.644;2022-09-25T16:50:45;15.00;99.90
38936;DHT22;25541;47.458;9.644;2022-09-25T16:53:13;15.10;99.90
38936;DHT22;25541;47.458;9.644;2022-09-25T16:55:46;15.10;99.90
38936;DHT22;25541;47.458;9.644;2022-09-25T16:58:20;15.20;99.90
38936;DHT22;25541;47.458;9.644;2022-09-25T17:00:48;15.20;99.90
38936;DHT22;25541;47.458;9.644;2022-09-25T17:03:14;15.10;99.90
38936;DHT22;25541;47.458;9.644;2022-09-25T17:05:40;15.20;99.90
38936;DHT22;25541;47.458;9.644;2022-09-25T17:08:26;15.20;99.90
38936;DHT22;25541;47.458;9.644;2022-09-25T17:10:52;15.10;99.90
38936;DHT22;25541;47.458;9.644;2022-09-25T17:13:26;15.00;99.90
38936;DHT22;25541;47.458;9.644;2022-09-25T17:15:52;14.90;99.90
38936;DHT22;25541;47.458;9.644;2022-09-25T17:18:20;14.90;99.90
38936;DHT22;25541;47.458;9.644;2022-09-25T17:20:50;15.00;99.90
38936;DHT22;25541;47.458;9.644;2022-09-25T17:23:18;14.80;99.90
38936;DHT22;25541;47.458;9.644;2022-09-25T17:25:51;14.80;99.90
38936;DHT22;25541;47.458;9.644;2022-09-25T17:28:17;14.90;99.90
38936;DHT22;25541;47.458;9.644;2022-09-25T17:30:43;14.90;99.90
38936;DHT22;25541;47.458;9.644;2022-09-25T17:33:17;14.90;99.90
38936;DHT22;25541;47.458;9.644;2022-09-25T17:35:50;14.70;99.90
38936;DHT22;25541;47.458;9.644;2022-09-25T17:38:17;14.60;99.90
38936;DHT22;25541;47.458;9.644;2022-09-25T17:40:45;14.60;99.90
38936;DHT22;25541;47.458;9.644;2022-09-25T17:43:12;14.70;99.90
38936;DHT22;25541;47.458;9.644;2022-09-25T17:48:10;14.50;99.90
38936;DHT22;25541;47.458;9.644;2022-09-25T17:50:36;14.50;99.90
38936;DHT22;25541;47.458;9.644;2022-09-25T17:53:10;14.60;99.90
38936;DHT22;25541;47.458;9.644;2022-09-25T17:55:38;14.60;99.90
38936;DHT22;25541;47.458;9.644;2022-09-25T17:58:04;14.50;99.90
38936;DHT22;25541;47.458;9.644;2022-09-25T18:00:30;14.60;99.90
38936;DHT22;25541;47.458;9.644;2022-09-25T18:02:55;14.60;99.90
38936;DHT22;25541;47.458;9.644;2022-09-25T18:05:21;14.70;99.90
38936;DHT22;25541;47.458;9.644;2022-09-25T18:07:46;14.60;99.90
38936;DHT22;25541;47.458;9.644;2022-09-25T18:10:12;14.60;99.90
38936;DHT22;25541;47.458;9.644;2022-09-25T18:12:39;14.70;99.90
38936;DHT22;25541;47.458;9.644;2022-09-25T18:15:05;14.60;99.90
38936;DHT22;25541;47.458;9.644;2022-09-25T18:17:31;14.60;99.90
38936;DHT22;25541;47.458;9.644;2022-09-25T18:19:57;14.50;99.90
38936;DHT22;25541;47.458;9.644;2022-09-25T18:22:41;14.40;99.90
38936;DHT22;25541;47.458;9.644;2022-09-25T18:25:08;14.10;99.90
38936;DHT22;25541;47.458;9.644;2022-09-25T18:27:37;14.00;99.90
38936;DHT22;25541;47.458;9.644;2022-09-25T18:30:04;14.00;99.90
38936;DHT22;25541;47.458;9.644;2022-09-25T18:32:29;14.10;99.90
38936;DHT22;25541;47.458;9.644;2022-09-25T18:34:56;14.00;99.90
38936;DHT22;25541;47.458;9.644;2022-09-25T18:37:21;14.00;99.90
38936;DHT22;25541;47.458;9.644;2022-09-25T18:39:47;13.80;99.90
38936;DHT22;25541;47.458;9.644;2022-09-25T18:42:13;13.70;99.90
38936;DHT22;25541;47.458;9.644;2022-09-25T18:44:38;13.70;99.90
38936;DHT22;25541;47.458;9.644;2022-09-25T18:47:04;13.80;99.90
38936;DHT22;25541;47.458;9.644;2022-09-25T18:49:30;13.90;99.90
38936;DHT22;25541;47.458;9.644;2022-09-25T18:51:56;14.00;99.90
38936;DHT22;25541;47.458;9.644;2022-09-25T18:54:22;14.00;99.90
38936;DHT22;25541;47.458;9.644;2022-09-25T18:56:48;13.90;99.90
38936;DHT22;25541;47.458;9.644;2022-09-25T18:59:14;13.80;99.90
38936;DHT22;25541;47.458;9.644;2022-09-25T19:01:40;13.60;99.90
38936;DHT22;25541;47.458;9.644;2022-09-25T19:04:06;13.60;99.90
38936;DHT22;25541;47.458;9.644;2022-09-25T19:06:33;13.50;99.90
38936;DHT22;25541;47.458;9.644;2022-09-25T19:08:59;13.30;99.90
38936;DHT22;25541;47.458;9.644;2022-09-25T19:11:26;13.10;99.90
38936;DHT22;25541;47.458;9.644;2022-09-25T19:13:53;13.10;99.90
38936;DHT22;25541;47.458;9.644;2022-09-25T19:16:22;13.20;99.90
38936;DHT22;25541;47.458;9.644;2022-09-25T19:18:48;13.20;99.90
38936;DHT22;25541;47.458;9.644;2022-09-25T19:21:18;13.20;99.90
38936;DHT22;25541;47.458;9.644;2022-09-25T19:23:47;13.30;99.90
38936;DHT22;25541;47.458;9.644;2022-09-25T19:26:15;13.30;99.90
38936;DHT22;25541;47.458;9.644;2022-09-25T19:28:41;13.20;99.90
38936;DHT22;25541;47.458;9.644;2022-09-25T19:31:26;13.30;99.90
38936;DHT22;25541;47.458;9.644;2022-09-25T19:33:53;13.50;99.90
38936;DHT22;25541;47.458;9.644;2022-09-25T19:36:24;13.50;99.90
38936;DHT22;25541;47.458;9.644;2022-09-25T19:38:51;13.60;99.90
38936;DHT22;25541;47.458;9.644;2022-09-25T19:41:20;13.70;99.90
38936;DHT22;25541;47.458;9.644;2022-09-25T19:43:51;13.80;99.90
38936;DHT22;25541;47.458;9.644;2022-09-25T19:46:18;13.80;99.90
38936;DHT22;25541;47.458;9.644;2022-09-25T19:48:46;13.80;99.90
38936;DHT22;25541;47.458;9.644;2022-09-25T19:51:13;13.80;99.90
38936;DHT22;25541;47.458;9.644;2022-09-25T19:53:43;13.80;99.90
38936;DHT22;25541;47.458;9.644;2022-09-25T19:56:09;13.70;99.90
38936;DHT22;25541;47.458;9.644;2022-09-25T19:58:35;13.60;99.90
38936;DHT22;25541;47.458;9.644;2022-09-25T20:01:18;13.60;99.90
38936;DHT22;25541;47.458;9.644;2022-09-25T20:03:43;13.70;99.90
38936;DHT22;25541;47.458;9.644;2022-09-25T20:06:10;13.70;99.90
38936;DHT22;25541;47.458;9.644;2022-09-25T20:08:36;13.70;99.90
38936;DHT22;25541;47.458;9.644;2022-09-25T20:11:18;13.70;99.90
38936;DHT22;25541;47.458;9.644;2022-09-25T20:13:45;13.60;99.90
38936;DHT22;25541;47.458;9.644;2022-09-25T20:16:14;13.60;99.90
38936;DHT22;25541;47.458;9.644;2022-09-25T20:18:40;13.60;99.90
38936;DHT22;25541;47.458;9.644;2022-09-25T20:21:07;13.40;99.90
38936;DHT22;25541;47.458;9.644;2022-09-25T20:23:34;13.30;99.90
38936;DHT22;25541;47.458;9.644;2022-09-25T20:26:14;13.40;99.90
38936;DHT22;25541;47.458;9.644;2022-09-25T20:28:41;13.50;99.90
38936;DHT22;25541;47.458;9.644;2022-09-25T20:31:10;13.60;99.90
38936;DHT22;25541;47.458;9.644;2022-09-25T20:33:36;13.60;99.90
38936;DHT22;25541;47.458;9.644;2022-09-25T20:36:04;13.70;99.90
38936;DHT22;25541;47.458;9.644;2022-09-25T20:38:31;13.70;99.90
38936;DHT22;25541;47.458;9.644;2022-09-25T20:41:05;13.50;99.90
38936;DHT22;25541;47.458;9.644;2022-09-25T20:43:32;13.40;99.90
38936;DHT22;25541;47.458;9.644;2022-09-25T20:46:02;13.60;99.90
38936;DHT22;25541;47.458;9.644;2022-09-25T20:48:33;13.60;99.90
38936;DHT22;25541;47.458;9.644;2022-09-25T20:51:03;13.70;99.90
38936;DHT22;25541;47.458;9.644;2022-09-25T20:53:29;13.70;99.90
38936;DHT22;25541;47.458;9.644;2022-09-25T20:55:55;13.60;99.90
38936;DHT22;25541;47.458;9.644;2022-09-25T20:58:21;13.70;99.90
38936;DHT22;25541;47.458;9.644;2022-09-25T21:00:46;13.60;99.90
38936;DHT22;25541;47.458;9.644;2022-09-25T21:03:13;13.60;99.90
38936;DHT22;25541;47.458;9.644;2022-09-25T21:05:40;13.60;99.90
38936;DHT22;25541;47.458;9.644;2022-09-25T21:08:07;13.40;99.90
38936;DHT22;25541;47.458;9.644;2022-09-25T21:10:36;13.30;99.90
38936;DHT22;25541;47.458;9.644;2022-09-25T21:13:05;13.40;99.90
38936;DHT22;25541;47.458;9.644;2022-09-25T21:15:31;13.40;99.90
38936;DHT22;25541;47.458;9.644;2022-09-25T21:17:58;13.30;99.90
38936;DHT22;25541;47.458;9.644;2022-09-25T21:20:24;13.20;99.90
38936;DHT22;25541;47.458;9.644;2022-09-25T21:22:50;13.10;99.90
38936;DHT22;25541;47.458;9.644;2022-09-25T21:25:17;13.10;99.90
38936;DHT22;25541;47.458;9.644;2022-09-25T21:27:44;13.20;99.90
38936;DHT22;25541;47.458;9.644;2022-09-25T21:30:10;13.20;99.90
38936;DHT22;25541;47.458;9.644;2022-09-25T21:32:36;13.10;99.90
38936;DHT22;25541;47.458;9.644;2022-09-25T21:35:01;13.20;99.90
38936;DHT22;25541;47.458;9.644;2022-09-25T21:37:28;13.20;99.90
38936;DHT22;25541;47.458;9.644;2022-09-25T21:39:53;13.30;99.90
38936;DHT22;25541;47.458;9.644;2022-09-25T21:42:19;13.30;99.90
38936;DHT22;25541;47.458;9.644;2022-09-25T21:44:46;13.30;99.90
38936;DHT22;25541;47.458;9.644;2022-09-25T21:47:12;13.40;99.90
38936;DHT22;25541;47.458;9.644;2022-09-25T21:49:38;13.30;99.90
38936;DHT22;25541;47.458;9.644;2022-09-25T21:52:04;13.30;99.90
38936;DHT22;25541;47.458;9.644;2022-09-25T21:54:30;13.30;99.90
38936;DHT22;25541;47.458;9.644;2022-09-25T21:56:56;13.30;99.90
38936;DHT22;25541;47.458;9.644;2022-09-25T21:59:22;13.30;99.90
